createdAt,value
2016-11-30T00:00:23.457Z,0
2016-11-30T00:01:23.427Z,0
2016-11-30T00:02:23.488Z,0
2016-11-30T00:03:23.220Z,0
2016-11-30T00:04:23.065Z,0
2016-11-30T00:05:23.815Z,0
2016-11-30T00:06:25.242Z,0
2016-11-30T00:07:23.463Z,0
2016-11-30T00:08:23.204Z,0
2016-11-30T00:09:23.218Z,0
2016-11-30T00:10:23.171Z,0
2016-11-30T00:11:22.921Z,0
2016-11-30T00:12:23.503Z,0
2016-11-30T00:13:22.933Z,0
2016-11-30T00:14:23.568Z,0
2016-11-30T00:15:23.511Z,0
2016-11-30T00:16:23.579Z,0
2016-11-30T00:17:23.538Z,0
2016-11-30T00:18:23.343Z,0
2016-11-30T00:19:23.556Z,0
2016-11-30T00:20:23.249Z,0
2016-11-30T00:21:22.945Z,0
2016-11-30T00:22:23.630Z,0
2016-11-30T00:23:23.421Z,0
2016-11-30T00:24:23.691Z,0
2016-11-30T00:25:23.601Z,0
2016-11-30T00:26:24.209Z,0
2016-11-30T00:27:23.354Z,0
2016-11-30T00:28:23.664Z,0
2016-11-30T00:29:23.779Z,0
2016-11-30T00:30:23.385Z,0
2016-11-30T00:31:23.647Z,0
2016-11-30T00:32:23.087Z,0
2016-11-30T00:33:23.032Z,0
2016-11-30T00:34:24.035Z,0
2016-11-30T00:35:22.795Z,0
2016-11-30T00:36:23.686Z,0
2016-11-30T00:37:24.833Z,0
2016-11-30T00:38:23.752Z,0
2016-11-30T00:39:24.221Z,0
2016-11-30T00:40:24.132Z,0
2016-11-30T00:41:23.462Z,0
2016-11-30T00:42:23.159Z,0
2016-11-30T00:43:23.164Z,0
2016-11-30T00:44:24.135Z,0
2016-11-30T00:45:23.809Z,0
2016-11-30T00:46:23.819Z,0
2016-11-30T00:47:23.770Z,0
2016-11-30T00:48:25.118Z,0
2016-11-30T00:49:23.837Z,0
2016-11-30T00:50:26.369Z,0
2016-11-30T00:51:23.543Z,0
2016-11-30T00:52:23.185Z,0
2016-11-30T00:53:23.504Z,0
2016-11-30T00:54:23.197Z,0
2016-11-30T00:55:23.205Z,0
2016-11-30T00:56:23.526Z,0
2016-11-30T00:57:23.631Z,0
2016-11-30T00:58:23.229Z,0
2016-11-30T00:59:25.376Z,0
2016-11-30T01:00:23.876Z,0
2016-11-30T01:01:24.743Z,0
2016-11-30T01:02:23.355Z,0
2016-11-30T01:03:23.948Z,0
2016-11-30T01:04:23.275Z,0
2016-11-30T01:05:22.975Z,0
2016-11-30T01:06:23.668Z,0
2016-11-30T01:07:23.662Z,0
2016-11-30T01:08:23.356Z,0
2016-11-30T01:09:24.256Z,0
2016-11-30T01:10:23.687Z,0
2016-11-30T01:11:23.953Z,0
2016-11-30T01:12:25.163Z,0
2016-11-30T01:13:23.662Z,0
2016-11-30T01:14:23.979Z,0
2016-11-30T01:15:23.563Z,0
2016-11-30T01:16:23.717Z,0
2016-11-30T01:17:23.686Z,0
2016-11-30T01:18:24.006Z,0
2016-11-30T01:19:23.697Z,0
2016-11-30T01:20:23.757Z,0
2016-11-30T01:21:23.767Z,0
2016-11-30T01:22:24.041Z,0
2016-11-30T01:23:25.587Z,0
2016-11-30T01:24:23.744Z,0
2016-11-30T01:25:24.160Z,0
2016-11-30T01:26:24.066Z,0
2016-11-30T01:27:24.150Z,0
2016-11-30T01:28:24.442Z,0
2016-11-30T01:29:24.089Z,0
2016-11-30T01:30:23.548Z,0
2016-11-30T01:31:23.526Z,0
2016-11-30T01:32:24.473Z,0
2016-11-30T01:33:23.552Z,0
2016-11-30T01:34:24.182Z,0
2016-11-30T01:35:24.185Z,0
2016-11-30T01:36:24.197Z,0
2016-11-30T01:37:23.579Z,0
2016-11-30T01:38:24.159Z,0
2016-11-30T01:39:24.539Z,0
2016-11-30T01:40:23.650Z,0
2016-11-30T01:41:23.559Z,0
2016-11-30T01:42:23.926Z,0
2016-11-30T01:43:24.651Z,0
2016-11-30T01:44:24.303Z,0
2016-11-30T01:45:24.262Z,0
2016-11-30T01:46:24.266Z,0
2016-11-30T01:47:23.961Z,0
2016-11-30T01:48:23.664Z,0
2016-11-30T01:49:23.926Z,0
2016-11-30T01:50:23.610Z,0
2016-11-30T01:51:24.259Z,0
2016-11-30T01:52:23.950Z,0
2016-11-30T01:53:24.584Z,0
2016-11-30T01:54:25.236Z,0
2016-11-30T01:55:24.075Z,0
2016-11-30T01:56:24.420Z,0
2016-11-30T01:57:23.990Z,0
2016-11-30T01:58:24.110Z,0
2016-11-30T01:59:24.008Z,0
2016-11-30T02:00:24.374Z,0
2016-11-30T02:01:23.709Z,0
2016-11-30T02:02:24.337Z,0
2016-11-30T02:03:24.139Z,0
2016-11-30T02:04:23.417Z,0
2016-11-30T02:05:26.047Z,0
2016-11-30T02:06:23.846Z,0
2016-11-30T02:07:24.906Z,0
2016-11-30T02:08:24.123Z,0
2016-11-30T02:09:23.766Z,0
2016-11-30T02:10:24.558Z,0
2016-11-30T02:11:23.835Z,0
2016-11-30T02:12:24.127Z,0
2016-11-30T02:13:23.860Z,0
2016-11-30T02:14:24.485Z,0
2016-11-30T02:15:24.774Z,0
2016-11-30T02:16:23.857Z,0
2016-11-30T02:17:24.607Z,0
2016-11-30T02:18:26.026Z,0
2016-11-30T02:19:23.959Z,0
2016-11-30T02:20:23.852Z,0
2016-11-30T02:21:24.536Z,0
2016-11-30T02:22:24.854Z,0
2016-11-30T02:23:24.188Z,0
2016-11-30T02:24:24.232Z,0
2016-11-30T02:25:25.520Z,0
2016-11-30T02:26:24.577Z,0
2016-11-30T02:27:24.779Z,0
2016-11-30T02:28:23.915Z,0
2016-11-30T02:29:24.276Z,0
2016-11-30T02:30:24.296Z,0
2016-11-30T02:31:24.646Z,0
2016-11-30T02:32:24.648Z,0
2016-11-30T02:33:24.313Z,0
2016-11-30T02:34:24.633Z,0
2016-11-30T02:35:23.650Z,0
2016-11-30T02:36:24.212Z,0
2016-11-30T02:37:24.394Z,0
2016-11-30T02:38:24.694Z,0
2016-11-30T02:39:24.934Z,0
2016-11-30T02:40:24.364Z,0
2016-11-30T02:41:24.426Z,0
2016-11-30T02:42:24.333Z,0
2016-11-30T02:43:24.027Z,0
2016-11-30T02:44:24.397Z,0
2016-11-30T02:45:24.402Z,0
2016-11-30T02:46:23.837Z,0
2016-11-30T02:47:26.150Z,0
2016-11-30T02:48:24.429Z,0
2016-11-30T02:49:25.286Z,0
2016-11-30T02:50:24.397Z,0
2016-11-30T02:51:24.965Z,0
2016-11-30T02:52:24.458Z,0
2016-11-30T02:53:26.043Z,0
2016-11-30T02:54:25.149Z,0
2016-11-30T02:55:24.167Z,0
2016-11-30T02:56:24.733Z,0
2016-11-30T02:57:25.070Z,0
2016-11-30T02:58:25.078Z,0
2016-11-30T02:59:24.822Z,0
2016-11-30T03:00:24.529Z,0
2016-11-30T03:01:23.855Z,0
2016-11-30T03:02:25.609Z,0
2016-11-30T03:03:25.121Z,0
2016-11-30T03:04:24.911Z,0
2016-11-30T03:05:24.871Z,0
2016-11-30T03:06:24.512Z,0
2016-11-30T03:07:24.886Z,0
2016-11-30T03:08:24.578Z,0
2016-11-30T03:09:25.052Z,0
2016-11-30T03:10:25.260Z,0
2016-11-30T03:11:24.606Z,0
2016-11-30T03:12:24.975Z,0
2016-11-30T03:13:24.039Z,0
2016-11-30T03:14:24.629Z,0
2016-11-30T03:15:24.632Z,0
2016-11-30T03:16:24.647Z,0
2016-11-30T03:17:24.335Z,0
2016-11-30T03:18:24.970Z,0
2016-11-30T03:19:24.611Z,0
2016-11-30T03:20:25.081Z,0
2016-11-30T03:21:25.645Z,0
2016-11-30T03:22:24.888Z,0
2016-11-30T03:23:25.274Z,0
2016-11-30T03:24:24.341Z,0
2016-11-30T03:25:24.344Z,0
2016-11-30T03:26:24.669Z,0
2016-11-30T03:27:24.727Z,0
2016-11-30T03:28:24.693Z,0
2016-11-30T03:29:24.739Z,0
2016-11-30T03:30:24.704Z,0
2016-11-30T03:31:25.906Z,0
2016-11-30T03:32:25.345Z,0
2016-11-30T03:33:25.719Z,0
2016-11-30T03:34:24.418Z,0
2016-11-30T03:35:24.842Z,0
2016-11-30T03:36:24.442Z,0
2016-11-30T03:37:24.858Z,0
2016-11-30T03:38:25.103Z,0
2016-11-30T03:39:24.459Z,0
2016-11-30T03:40:24.776Z,0
2016-11-30T03:41:25.097Z,0
2016-11-30T03:42:26.224Z,0
2016-11-30T03:43:24.848Z,0
2016-11-30T03:44:26.135Z,0
2016-11-30T03:45:25.229Z,0
2016-11-30T03:46:25.435Z,0
2016-11-30T03:47:24.831Z,0
2016-11-30T03:48:25.197Z,0
2016-11-30T03:49:25.206Z,0
2016-11-30T03:50:24.588Z,0
2016-11-30T03:51:25.176Z,0
2016-11-30T03:52:25.236Z,0
2016-11-30T03:53:25.551Z,0
2016-11-30T03:54:24.566Z,0
2016-11-30T03:55:26.892Z,0
2016-11-30T03:56:25.264Z,0
2016-11-30T03:57:25.795Z,0
2016-11-30T03:58:25.226Z,0
2016-11-30T03:59:25.005Z,0
2016-11-30T04:00:24.352Z,0
2016-11-30T04:01:24.932Z,0
2016-11-30T04:02:25.308Z,0
2016-11-30T04:03:25.055Z,0
2016-11-30T04:04:24.645Z,0
2016-11-30T04:05:24.751Z,0
2016-11-30T04:06:27.086Z,0
2016-11-30T04:07:24.716Z,0
2016-11-30T04:08:25.909Z,0
2016-11-30T04:09:25.460Z,0
2016-11-30T04:10:25.319Z,0
2016-11-30T04:11:25.326Z,0
2016-11-30T04:12:24.806Z,0
2016-11-30T04:13:25.340Z,0
2016-11-30T04:14:25.083Z,0
2016-11-30T04:15:25.505Z,0
2016-11-30T04:16:25.098Z,0
2016-11-30T04:17:27.576Z,0
2016-11-30T04:18:25.426Z,0
2016-11-30T04:19:26.347Z,0
2016-11-30T04:20:25.177Z,0
2016-11-30T04:21:25.811Z,0
2016-11-30T04:22:25.413Z,0
2016-11-30T04:23:25.734Z,0
2016-11-30T04:24:25.472Z,0
2016-11-30T04:25:25.445Z,0
2016-11-30T04:26:25.296Z,0
2016-11-30T04:27:24.820Z,0
2016-11-30T04:28:25.455Z,0
2016-11-30T04:29:25.818Z,0
2016-11-30T04:30:24.895Z,0
2016-11-30T04:31:24.952Z,0
2016-11-30T04:32:25.900Z,0
2016-11-30T04:33:25.496Z,0
2016-11-30T04:34:25.184Z,0
2016-11-30T04:35:24.933Z,0
2016-11-30T04:36:24.933Z,0
2016-11-30T04:37:25.844Z,0
2016-11-30T04:38:25.022Z,0
2016-11-30T04:39:25.213Z,0
2016-11-30T04:40:25.251Z,0
2016-11-30T04:41:25.343Z,0
2016-11-30T04:42:25.250Z,0
2016-11-30T04:43:25.359Z,0
2016-11-30T04:44:40.248Z,0
2016-11-30T04:45:25.009Z,0
2016-11-30T04:46:25.277Z,0
2016-11-30T04:47:25.598Z,0
2016-11-30T04:48:26.566Z,0
2016-11-30T04:49:25.660Z,0
2016-11-30T04:50:25.650Z,0
2016-11-30T04:51:25.678Z,0
2016-11-30T04:52:25.371Z,0
2016-11-30T04:53:25.693Z,0
2016-11-30T04:54:25.080Z,0
2016-11-30T04:55:25.707Z,0
2016-11-30T04:56:25.407Z,0
2016-11-30T04:57:26.044Z,0
2016-11-30T04:58:25.734Z,0
2016-11-30T04:59:26.974Z,0
2016-11-30T05:00:25.436Z,0
2016-11-30T05:01:26.758Z,0
2016-11-30T05:02:25.455Z,0
2016-11-30T05:03:26.122Z,0
2016-11-30T05:04:25.423Z,0
2016-11-30T05:05:25.169Z,0
2016-11-30T05:06:25.431Z,0
2016-11-30T05:07:25.130Z,0
2016-11-30T05:08:25.183Z,0
2016-11-30T05:09:25.246Z,0
2016-11-30T05:10:25.875Z,0
2016-11-30T05:11:25.527Z,0
2016-11-30T05:12:27.361Z,0
2016-11-30T05:13:25.226Z,0
2016-11-30T05:14:26.643Z,0
2016-11-30T05:15:25.584Z,0
2016-11-30T05:16:25.250Z,0
2016-11-30T05:17:25.308Z,0
2016-11-30T05:18:26.182Z,0
2016-11-30T05:19:25.531Z,0
2016-11-30T05:20:25.277Z,0
2016-11-30T05:21:25.860Z,0
2016-11-30T05:22:25.655Z,0
2016-11-30T05:23:25.248Z,0
2016-11-30T05:24:26.038Z,0
2016-11-30T05:25:25.640Z,0
2016-11-30T05:26:24.958Z,0
2016-11-30T05:27:25.902Z,0
2016-11-30T05:28:26.325Z,0
2016-11-30T05:29:25.613Z,0
2016-11-30T05:30:25.334Z,0
2016-11-30T05:31:25.315Z,0
2016-11-30T05:32:26.672Z,0
2016-11-30T05:33:25.951Z,0
2016-11-30T05:34:26.086Z,0
2016-11-30T05:35:25.964Z,0
2016-11-30T05:36:25.663Z,0
2016-11-30T05:37:26.342Z,0
2016-11-30T05:38:25.367Z,0
2016-11-30T05:39:25.416Z,0
2016-11-30T05:40:25.843Z,0
2016-11-30T05:41:26.012Z,0
2016-11-30T05:42:25.756Z,0
2016-11-30T05:43:27.264Z,0
2016-11-30T05:44:42.716Z,0
2016-11-30T05:45:26.637Z,0
2016-11-30T05:46:26.101Z,0
2016-11-30T05:47:26.108Z,0
2016-11-30T05:48:26.119Z,0
2016-11-30T05:49:25.134Z,0
2016-11-30T05:50:25.815Z,0
2016-11-30T05:51:26.142Z,0
2016-11-30T05:52:25.889Z,0
2016-11-30T05:53:26.420Z,0
2016-11-30T05:54:25.547Z,0
2016-11-30T05:55:25.494Z,0
2016-11-30T05:56:26.960Z,0
2016-11-30T05:57:26.133Z,0
2016-11-30T05:58:25.832Z,0
2016-11-30T05:59:25.576Z,0
2016-11-30T06:00:25.918Z,0
2016-11-30T06:01:25.641Z,0
2016-11-30T06:02:26.181Z,0
2016-11-30T06:03:26.178Z,0
2016-11-30T06:04:25.959Z,0
2016-11-30T06:05:26.251Z,0
2016-11-30T06:06:26.199Z,0
2016-11-30T06:07:27.397Z,0
2016-11-30T06:08:25.904Z,0
2016-11-30T06:09:25.713Z,0
2016-11-30T06:10:26.020Z,0
2016-11-30T06:11:25.925Z,0
2016-11-30T06:12:25.941Z,0
2016-11-30T06:13:25.945Z,0
2016-11-30T06:14:40.831Z,0
2016-11-30T06:15:26.398Z,0
2016-11-30T06:16:26.323Z,0
2016-11-30T06:17:26.337Z,0
2016-11-30T06:18:27.994Z,0
2016-11-30T06:19:26.311Z,0
2016-11-30T06:20:26.410Z,0
2016-11-30T06:21:26.324Z,0
2016-11-30T06:22:26.012Z,0
2016-11-30T06:23:26.645Z,0
2016-11-30T06:24:26.325Z,0
2016-11-30T06:25:26.355Z,0
2016-11-30T06:26:25.417Z,0
2016-11-30T06:27:26.827Z,0
2016-11-30T06:28:25.797Z,0
2016-11-30T06:29:25.811Z,0
2016-11-30T06:30:26.074Z,0
2016-11-30T06:31:26.448Z,0
2016-11-30T06:32:26.147Z,0
2016-11-30T06:33:26.146Z,0
2016-11-30T06:34:26.781Z,0
2016-11-30T06:35:25.947Z,0
2016-11-30T06:36:26.431Z,0
2016-11-30T06:37:26.142Z,0
2016-11-30T06:38:27.770Z,0
2016-11-30T06:39:26.527Z,0
2016-11-30T06:40:27.063Z,0
2016-11-30T06:41:26.156Z,0
2016-11-30T06:42:26.220Z,0
2016-11-30T06:43:26.225Z,0
2016-11-30T06:44:41.378Z,0
2016-11-30T06:45:26.505Z,0
2016-11-30T06:46:26.565Z,0
2016-11-30T06:47:26.040Z,0
2016-11-30T06:48:26.884Z,0
2016-11-30T06:49:28.335Z,0
2016-11-30T06:50:26.591Z,0
2016-11-30T06:51:27.561Z,0
2016-11-30T06:52:26.605Z,0
2016-11-30T06:53:26.299Z,0
2016-11-30T06:54:26.393Z,0
2016-11-30T06:55:26.313Z,0
2016-11-30T06:56:26.643Z,0
2016-11-30T06:57:26.632Z,0
2016-11-30T06:58:26.341Z,0
2016-11-30T06:59:26.395Z,0
2016-11-30T07:00:26.617Z,0
2016-11-30T07:01:25.996Z,0
2016-11-30T07:02:28.078Z,0
2016-11-30T07:03:26.014Z,0
2016-11-30T07:04:26.345Z,0
2016-11-30T07:05:26.084Z,0
2016-11-30T07:06:25.820Z,0
2016-11-30T07:07:26.515Z,0
2016-11-30T07:08:26.682Z,0
2016-11-30T07:09:26.931Z,0
2016-11-30T07:10:26.381Z,0
2016-11-30T07:11:27.146Z,0
2016-11-30T07:12:26.494Z,0
2016-11-30T07:13:26.920Z,0
2016-11-30T07:14:25.788Z,0
2016-11-30T07:15:26.469Z,0
2016-11-30T07:16:26.741Z,0
2016-11-30T07:17:26.432Z,0
2016-11-30T07:18:26.178Z,0
2016-11-30T07:19:26.497Z,0
2016-11-30T07:20:27.877Z,0
2016-11-30T07:21:26.816Z,0
2016-11-30T07:22:28.148Z,5
2016-11-30T07:23:26.166Z,5
2016-11-30T07:24:27.309Z,5
2016-11-30T07:25:26.494Z,5
2016-11-30T07:26:26.242Z,5
2016-11-30T07:27:26.831Z,5
2016-11-30T07:28:27.185Z,5
2016-11-30T07:29:26.215Z,5
2016-11-30T07:30:26.320Z,5
2016-11-30T07:31:26.860Z,5
2016-11-30T07:32:26.598Z,5
2016-11-30T07:33:28.338Z,5
2016-11-30T07:34:26.307Z,10
2016-11-30T07:35:27.723Z,10
2016-11-30T07:36:26.737Z,10
2016-11-30T07:37:26.648Z,10
2016-11-30T07:38:26.338Z,10
2016-11-30T07:39:26.702Z,10
2016-11-30T07:40:26.920Z,10
2016-11-30T07:41:26.978Z,10
2016-11-30T07:42:26.054Z,15
2016-11-30T07:43:27.048Z,15
2016-11-30T07:44:31.240Z,15
2016-11-30T07:45:26.350Z,15
2016-11-30T07:46:28.164Z,15
2016-11-30T07:47:26.766Z,15
2016-11-30T07:48:27.398Z,15
2016-11-30T07:49:26.421Z,15
2016-11-30T07:50:26.749Z,15
2016-11-30T07:51:27.063Z,20
2016-11-30T07:52:26.709Z,20
2016-11-30T07:53:26.501Z,20
2016-11-30T07:54:26.138Z,20
2016-11-30T07:55:26.831Z,20
2016-11-30T07:56:26.784Z,20
2016-11-30T07:57:26.532Z,20
2016-11-30T07:58:26.750Z,20
2016-11-30T07:59:26.810Z,20
2016-11-30T08:00:26.189Z,20
2016-11-30T08:01:27.408Z,20
2016-11-30T08:02:27.478Z,25
2016-11-30T08:03:26.800Z,25
2016-11-30T08:04:27.018Z,25
2016-11-30T08:05:26.904Z,25
2016-11-30T08:06:27.278Z,25
2016-11-30T08:07:26.819Z,25
2016-11-30T08:08:26.512Z,25
2016-11-30T08:09:26.539Z,25
2016-11-30T08:10:26.896Z,25
2016-11-30T08:11:26.958Z,25
2016-11-30T08:12:27.169Z,25
2016-11-30T08:13:26.872Z,25
2016-11-30T08:14:27.237Z,30
2016-11-30T08:15:27.799Z,30
2016-11-30T08:16:27.516Z,30
2016-11-30T08:17:27.613Z,30
2016-11-30T08:18:27.272Z,30
2016-11-30T08:19:27.593Z,30
2016-11-30T08:20:27.239Z,30
2016-11-30T08:21:27.293Z,30
2016-11-30T08:22:26.986Z,35
2016-11-30T08:23:26.997Z,35
2016-11-30T08:24:26.695Z,40
2016-11-30T08:25:27.377Z,45
2016-11-30T08:26:28.137Z,65
2016-11-30T08:27:27.024Z,85
2016-11-30T08:28:28.002Z,80
2016-11-30T08:29:27.308Z,60
2016-11-30T08:30:27.093Z,45
2016-11-30T08:31:27.632Z,50
2016-11-30T08:32:26.705Z,55
2016-11-30T08:33:27.075Z,55
2016-11-30T08:34:27.088Z,50
2016-11-30T08:35:27.141Z,55
2016-11-30T08:36:27.051Z,55
2016-11-30T08:37:28.264Z,55
2016-11-30T08:38:27.479Z,55
2016-11-30T08:39:28.457Z,60
2016-11-30T08:40:27.137Z,60
2016-11-30T08:41:27.376Z,60
2016-11-30T08:42:27.159Z,60
2016-11-30T08:43:26.902Z,65
2016-11-30T08:44:27.115Z,65
2016-11-30T08:45:26.861Z,70
2016-11-30T08:46:27.811Z,70
2016-11-30T08:47:26.886Z,65
2016-11-30T08:48:27.459Z,70
2016-11-30T08:49:27.209Z,75
2016-11-30T08:50:28.867Z,70
2016-11-30T08:51:27.488Z,65
2016-11-30T08:52:27.692Z,65
2016-11-30T08:53:26.883Z,65
2016-11-30T08:54:27.255Z,65
2016-11-30T08:55:27.308Z,60
2016-11-30T08:56:27.259Z,65
2016-11-30T08:57:27.040Z,65
2016-11-30T08:58:27.596Z,60
2016-11-30T08:59:27.241Z,60
2016-11-30T09:00:27.878Z,60
2016-11-30T09:01:28.769Z,60
2016-11-30T09:02:26.947Z,60
2016-11-30T09:03:27.670Z,60
2016-11-30T09:04:27.333Z,60
2016-11-30T09:05:27.338Z,60
2016-11-30T09:06:27.923Z,65
2016-11-30T09:07:28.489Z,60
2016-11-30T09:08:26.998Z,60
2016-11-30T09:09:27.372Z,60
2016-11-30T09:10:26.752Z,65
2016-11-30T09:11:27.698Z,70
2016-11-30T09:12:28.635Z,75
2016-11-30T09:13:27.409Z,75
2016-11-30T09:14:27.463Z,60
2016-11-30T09:15:28.438Z,65
2016-11-30T09:16:27.125Z,70
2016-11-30T09:17:27.737Z,70
2016-11-30T09:18:27.496Z,70
2016-11-30T09:19:27.408Z,70
2016-11-30T09:20:27.828Z,70
2016-11-30T09:21:27.423Z,75
2016-11-30T09:22:28.056Z,75
2016-11-30T09:23:28.089Z,70
2016-11-30T09:24:27.808Z,65
2016-11-30T09:25:27.186Z,70
2016-11-30T09:26:42.340Z,70
2016-11-30T09:27:28.682Z,65
2016-11-30T09:28:28.182Z,65
2016-11-30T09:29:27.176Z,65
2016-11-30T09:30:27.247Z,65
2016-11-30T09:31:28.139Z,65
2016-11-30T09:32:27.562Z,65
2016-11-30T09:33:27.219Z,65
2016-11-30T09:34:27.922Z,70
2016-11-30T09:35:27.536Z,70
2016-11-30T09:36:30.179Z,75
2016-11-30T09:37:27.966Z,75
2016-11-30T09:38:27.361Z,70
2016-11-30T09:39:27.572Z,70
2016-11-30T09:40:26.954Z,70
2016-11-30T09:41:27.959Z,75
2016-11-30T09:42:27.709Z,80
2016-11-30T09:43:28.031Z,105
2016-11-30T09:44:44.306Z,130
2016-11-30T09:45:28.283Z,140
2016-11-30T09:46:27.643Z,155
2016-11-30T09:47:28.034Z,155
2016-11-30T09:48:27.646Z,150
2016-11-30T09:49:28.881Z,145
2016-11-30T09:50:27.989Z,140
2016-11-30T09:51:28.047Z,150
2016-11-30T09:52:28.043Z,125
2016-11-30T09:53:27.838Z,110
2016-11-30T09:54:27.750Z,110
2016-11-30T09:55:27.805Z,110
2016-11-30T09:56:27.767Z,110
2016-11-30T09:57:27.773Z,100
2016-11-30T09:58:29.793Z,85
2016-11-30T09:59:27.841Z,80
2016-11-30T10:00:28.677Z,85
2016-11-30T10:01:27.811Z,85
2016-11-30T10:02:28.394Z,75
2016-11-30T10:03:27.773Z,70
2016-11-30T10:04:28.522Z,80
2016-11-30T10:05:27.528Z,65
2016-11-30T10:06:28.162Z,70
2016-11-30T10:07:28.172Z,75
2016-11-30T10:08:27.872Z,80
2016-11-30T10:09:27.833Z,65
2016-11-30T10:10:27.883Z,60
2016-11-30T10:11:28.801Z,55
2016-11-30T10:12:28.265Z,55
2016-11-30T10:13:27.545Z,55
2016-11-30T10:14:28.838Z,55
2016-11-30T10:15:28.598Z,55
2016-11-30T10:16:27.577Z,55
2016-11-30T10:17:27.982Z,55
2016-11-30T10:18:28.217Z,55
2016-11-30T10:19:27.910Z,55
2016-11-30T10:20:29.665Z,55
2016-11-30T10:21:28.549Z,55
2016-11-30T10:22:28.898Z,55
2016-11-30T10:23:28.712Z,55
2016-11-30T10:24:27.834Z,50
2016-11-30T10:25:28.065Z,50
2016-11-30T10:26:27.705Z,50
2016-11-30T10:27:28.102Z,50
2016-11-30T10:28:28.297Z,50
2016-11-30T10:29:28.094Z,50
2016-11-30T10:30:28.661Z,50
2016-11-30T10:31:28.007Z,50
2016-11-30T10:32:27.701Z,50
2016-11-30T10:33:28.988Z,50
2016-11-30T10:34:28.348Z,50
2016-11-30T10:35:30.280Z,50
2016-11-30T10:36:28.099Z,50
2016-11-30T10:37:28.211Z,50
2016-11-30T10:38:28.428Z,45
2016-11-30T10:39:28.454Z,45
2016-11-30T10:40:28.133Z,45
2016-11-30T10:41:28.138Z,45
2016-11-30T10:42:29.200Z,45
2016-11-30T10:43:28.418Z,45
2016-11-30T10:44:28.876Z,45
2016-11-30T10:45:28.122Z,45
2016-11-30T10:46:30.093Z,45
2016-11-30T10:47:28.537Z,45
2016-11-30T10:48:28.776Z,45
2016-11-30T10:49:27.901Z,45
2016-11-30T10:50:28.471Z,45
2016-11-30T10:51:28.626Z,45
2016-11-30T10:52:28.351Z,45
2016-11-30T10:53:28.183Z,45
2016-11-30T10:54:28.192Z,45
2016-11-30T10:55:29.154Z,45
2016-11-30T10:56:28.260Z,50
2016-11-30T10:57:30.418Z,50
2016-11-30T10:58:28.065Z,50
2016-11-30T10:59:28.908Z,50
2016-11-30T11:00:28.240Z,50
2016-11-30T11:01:27.988Z,50
2016-11-30T11:02:28.566Z,50
2016-11-30T11:03:28.264Z,50
2016-11-30T11:04:28.894Z,50
2016-11-30T11:05:28.591Z,50
2016-11-30T11:06:29.090Z,50
2016-11-30T11:07:28.607Z,50
2016-11-30T11:08:28.300Z,50
2016-11-30T11:09:28.310Z,50
2016-11-30T11:10:29.644Z,50
2016-11-30T11:11:28.019Z,50
2016-11-30T11:12:28.349Z,50
2016-11-30T11:13:28.629Z,50
2016-11-30T11:14:28.729Z,50
2016-11-30T11:15:28.508Z,50
2016-11-30T11:16:28.422Z,50
2016-11-30T11:17:29.141Z,50
2016-11-30T11:18:28.532Z,50
2016-11-30T11:19:28.460Z,50
2016-11-30T11:20:28.759Z,50
2016-11-30T11:21:29.570Z,50
2016-11-30T11:22:28.513Z,50
2016-11-30T11:23:28.736Z,45
2016-11-30T11:24:28.477Z,45
2016-11-30T11:25:27.815Z,45
2016-11-30T11:26:28.595Z,45
2016-11-30T11:27:28.452Z,50
2016-11-30T11:28:28.200Z,50
2016-11-30T11:29:29.087Z,50
2016-11-30T11:30:30.073Z,50
2016-11-30T11:31:28.546Z,45
2016-11-30T11:32:29.232Z,50
2016-11-30T11:33:28.504Z,50
2016-11-30T11:34:28.925Z,50
2016-11-30T11:35:28.833Z,50
2016-11-30T11:36:28.271Z,50
2016-11-30T11:37:27.953Z,50
2016-11-30T11:38:28.852Z,45
2016-11-30T11:39:28.914Z,45
2016-11-30T11:40:28.886Z,45
2016-11-30T11:41:30.329Z,45
2016-11-30T11:42:28.316Z,45
2016-11-30T11:43:29.130Z,45
2016-11-30T11:44:28.904Z,45
2016-11-30T11:45:28.649Z,45
2016-11-30T11:46:28.925Z,45
2016-11-30T11:47:28.659Z,45
2016-11-30T11:48:28.934Z,45
2016-11-30T11:49:29.392Z,45
2016-11-30T11:50:28.690Z,45
2016-11-30T11:51:28.742Z,45
2016-11-30T11:52:29.969Z,45
2016-11-30T11:53:28.347Z,45
2016-11-30T11:54:29.395Z,45
2016-11-30T11:55:28.759Z,45
2016-11-30T11:56:30.161Z,45
2016-11-30T11:57:28.436Z,45
2016-11-30T11:58:28.734Z,45
2016-11-30T11:59:28.710Z,45
2016-11-30T12:00:28.874Z,45
2016-11-30T12:01:29.111Z,45
2016-11-30T12:02:28.788Z,40
2016-11-30T12:03:28.898Z,40
2016-11-30T12:04:29.069Z,40
2016-11-30T12:05:31.078Z,40
2016-11-30T12:06:28.603Z,40
2016-11-30T12:07:29.901Z,40
2016-11-30T12:08:28.208Z,40
2016-11-30T12:09:28.869Z,45
2016-11-30T12:10:28.901Z,45
2016-11-30T12:11:29.125Z,45
2016-11-30T12:12:28.552Z,45
2016-11-30T12:13:29.136Z,40
2016-11-30T12:14:28.981Z,45
2016-11-30T12:15:28.842Z,45
2016-11-30T12:16:29.199Z,45
2016-11-30T12:17:29.221Z,40
2016-11-30T12:18:29.913Z,40
2016-11-30T12:19:28.588Z,40
2016-11-30T12:20:28.932Z,40
2016-11-30T12:21:28.900Z,40
2016-11-30T12:22:28.638Z,40
2016-11-30T12:23:28.957Z,40
2016-11-30T12:24:29.014Z,40
2016-11-30T12:25:28.405Z,40
2016-11-30T12:26:29.244Z,40
2016-11-30T12:27:30.650Z,40
2016-11-30T12:28:29.309Z,40
2016-11-30T12:29:29.421Z,40
2016-11-30T12:30:29.312Z,40
2016-11-30T12:31:29.332Z,40
2016-11-30T12:32:29.031Z,40
2016-11-30T12:33:29.087Z,40
2016-11-30T12:34:28.992Z,45
2016-11-30T12:36:29.380Z,45
2016-11-30T12:37:29.065Z,45
2016-11-30T12:38:30.338Z,45
2016-11-30T12:39:29.035Z,40
2016-11-30T12:40:29.485Z,45
2016-11-30T12:41:29.050Z,45
2016-11-30T12:42:30.973Z,45
2016-11-30T12:43:29.171Z,45
2016-11-30T12:44:29.127Z,45
2016-11-30T12:45:29.497Z,45
2016-11-30T12:46:29.234Z,40
2016-11-30T12:47:29.151Z,40
2016-11-30T12:48:29.159Z,40
2016-11-30T12:49:30.492Z,40
2016-11-30T12:50:29.440Z,45
2016-11-30T12:51:29.338Z,40
2016-11-30T12:52:29.205Z,40
2016-11-30T12:53:30.365Z,45
2016-11-30T12:54:29.517Z,45
2016-11-30T12:55:29.472Z,45
2016-11-30T12:56:28.857Z,45
2016-11-30T12:57:29.645Z,45
2016-11-30T12:58:28.875Z,45
2016-11-30T12:59:29.607Z,45
2016-11-30T13:00:30.115Z,45
2016-11-30T13:01:29.570Z,45
2016-11-30T13:02:29.422Z,45
2016-11-30T13:03:29.960Z,45
2016-11-30T13:04:30.723Z,45
2016-11-30T13:05:29.290Z,45
2016-11-30T13:06:29.614Z,45
2016-11-30T13:07:28.944Z,45
2016-11-30T13:08:29.365Z,45
2016-11-30T13:09:29.947Z,45
2016-11-30T13:10:29.333Z,45
2016-11-30T13:11:29.688Z,45
2016-11-30T13:12:29.659Z,45
2016-11-30T13:13:29.373Z,45
2016-11-30T13:14:29.623Z,45
2016-11-30T13:15:30.359Z,45
2016-11-30T13:16:29.408Z,45
2016-11-30T13:17:29.796Z,50
2016-11-30T13:18:30.078Z,55
2016-11-30T13:19:29.977Z,65
2016-11-30T13:20:29.363Z,65
2016-11-30T13:21:29.469Z,55
2016-11-30T13:22:29.479Z,50
2016-11-30T13:23:30.108Z,50
2016-11-30T13:24:29.394Z,45
2016-11-30T13:25:29.458Z,45
2016-11-30T13:26:30.556Z,40
2016-11-30T13:27:29.569Z,40
2016-11-30T13:28:29.838Z,40
2016-11-30T13:29:29.639Z,40
2016-11-30T13:30:30.319Z,40
2016-11-30T13:31:29.387Z,40
2016-11-30T13:32:30.123Z,35
2016-11-30T13:33:29.864Z,35
2016-11-30T13:34:29.833Z,35
2016-11-30T13:35:31.321Z,35
2016-11-30T13:36:29.597Z,35
2016-11-30T13:37:30.469Z,35
2016-11-30T13:38:31.430Z,35
2016-11-30T13:39:29.873Z,30
2016-11-30T13:40:30.244Z,30
2016-11-30T13:41:29.532Z,30
2016-11-30T13:42:29.685Z,30
2016-11-30T13:43:29.856Z,30
2016-11-30T13:44:29.550Z,25
2016-11-30T13:45:29.886Z,25
2016-11-30T13:46:29.565Z,25
2016-11-30T13:47:29.571Z,25
2016-11-30T13:48:30.609Z,25
2016-11-30T13:49:29.904Z,25
2016-11-30T13:50:29.646Z,25
2016-11-30T13:51:29.963Z,25
2016-11-30T13:52:30.021Z,25
2016-11-30T13:53:29.309Z,25
2016-11-30T13:54:29.988Z,20
2016-11-30T13:55:29.630Z,20
2016-11-30T13:56:29.326Z,20
2016-11-30T13:57:30.628Z,20
2016-11-30T13:58:29.396Z,20
2016-11-30T13:59:30.664Z,20
2016-11-30T14:00:29.806Z,20
2016-11-30T14:01:29.677Z,20
2016-11-30T14:02:30.334Z,20
2016-11-30T14:03:30.014Z,20
2016-11-30T14:04:29.486Z,20
2016-11-30T14:05:29.391Z,20
2016-11-30T14:06:30.026Z,20
2016-11-30T14:07:30.088Z,20
2016-11-30T14:08:30.356Z,15
2016-11-30T14:09:29.739Z,15
2016-11-30T14:10:30.588Z,15
2016-11-30T14:11:30.115Z,15
2016-11-30T14:12:29.816Z,15
2016-11-30T14:13:29.510Z,20
2016-11-30T14:14:29.888Z,20
2016-11-30T14:15:30.410Z,15
2016-11-30T14:16:29.893Z,15
2016-11-30T14:17:30.278Z,15
2016-11-30T14:18:30.127Z,15
2016-11-30T14:19:29.812Z,15
2016-11-30T14:20:29.555Z,15
2016-11-30T14:21:31.581Z,10
2016-11-30T14:22:30.204Z,10
2016-11-30T14:23:29.580Z,10
2016-11-30T14:24:30.463Z,10
2016-11-30T14:25:29.251Z,10
2016-11-30T14:26:30.165Z,10
2016-11-30T14:27:30.243Z,10
2016-11-30T14:28:30.239Z,10
2016-11-30T14:29:30.511Z,10
2016-11-30T14:30:29.902Z,10
2016-11-30T14:31:30.010Z,10
2016-11-30T14:32:30.667Z,10